Wetterdaten: Woche 02.03.09 - 08.03.09 (KW10)
Datum Zeit Temperatur Luftfeuchte Luftdruck Niederschlag Wind Richtung Sonnenschein Solar Taupunkt Windchill Windben
02.03.2009 00:00 6.0 C 86 % 1013.0 hPa 0.0 l/m 1.3 km/h (1 Bft) SO 0.00 h 0 W/m 3.8 C 6.0 C 2.6 km/h (1 Bft)
02.03.2009 01:00 5.8 C 88 % 1013.1 hPa 0.2 l/m 1.7 km/h (1 Bft) SO 0.00 h 0 W/m 3.9 C 5.8 C 3.0 km/h (1 Bft)
02.03.2009 02:00 5.8 C 90 % 1013.0 hPa 0.0 l/m 0.7 km/h (0 Bft) SO 0.00 h 0 W/m 4.3 C 5.8 C 1.9 km/h (1 Bft)
02.03.2009 03:00 5.6 C 92 % 1012.9 hPa 0.4 l/m 0.3 km/h (0 Bft) S-SO 0.00 h 0 W/m 4.4 C 5.6 C 1.2 km/h (1 Bft)
02.03.2009 04:00 5.4 C 93 % 1012.9 hPa 0.6 l/m 1.2 km/h (1 Bft) S 0.00 h 0 W/m 4.3 C 5.4 C 2.8 km/h (1 Bft)
02.03.2009 05:00 5.2 C 94 % 1013.1 hPa 0.4 l/m 0.1 km/h (0 Bft) S-SO 0.00 h 0 W/m 4.2 C 5.2 C 0.1 km/h (0 Bft)
02.03.2009 06:00 5.1 C 95 % 1013.2 hPa 0.4 l/m 0.2 km/h (0 Bft) S-SO 0.00 h 0 W/m 4.3 C 5.1 C 1.0 km/h (0 Bft)
02.03.2009 07:00 5.1 C 96 % 1013.4 hPa 0.0 l/m 0.6 km/h (0 Bft) S-SO 0.00 h 13 W/m 4.5 C 5.1 C 1.8 km/h (1 Bft)
02.03.2009 08:00 5.2 C 97 % 1013.9 hPa 0.2 l/m 0.7 km/h (0 Bft) S-SO 0.00 h 38 W/m 4.8 C 5.2 C 1.9 km/h (1 Bft)
02.03.2009 09:00 5.7 C 97 % 1014.3 hPa 0.0 l/m 0.6 km/h (0 Bft) S 0.00 h 70 W/m 5.3 C 5.7 C 2.0 km/h (1 Bft)
02.03.2009 10:00 6.2 C 97 % 1014.7 hPa 0.0 l/m 1.8 km/h (1 Bft) S 0.00 h 91 W/m 5.7 C 6.1 C 4.5 km/h (1 Bft)
02.03.2009 11:00 6.8 C 97 % 1015.0 hPa 0.0 l/m 2.9 km/h (1 Bft) S-SW 0.00 h 139 W/m 6.4 C 6.8 C 5.7 km/h (1 Bft)
02.03.2009 12:00 7.3 C 95 % 1015.3 hPa 0.0 l/m 2.3 km/h (1 Bft) S-SW 0.00 h 71 W/m 6.5 C 7.3 C 4.9 km/h (1 Bft)
02.03.2009 13:00 7.6 C 92 % 1015.3 hPa 0.0 l/m 6.0 km/h (2 Bft) W 0.00 h 71 W/m 6.4 C 6.7 C 9.3 km/h (2 Bft)
02.03.2009 14:00 7.6 C 91 % 1015.3 hPa 0.2 l/m 5.5 km/h (1 Bft) W 0.00 h 49 W/m 6.2 C 6.9 C 8.5 km/h (2 Bft)
02.03.2009 15:00 7.2 C 90 % 1015.8 hPa 0.0 l/m 5.0 km/h (1 Bft) W-NW 0.00 h 50 W/m 5.7 C 6.6 C 7.9 km/h (2 Bft)
02.03.2009 16:00 6.9 C 90 % 1016.0 hPa 0.2 l/m 4.5 km/h (1 Bft) W 0.00 h 46 W/m 5.4 C 6.4 C 7.1 km/h (2 Bft)
02.03.2009 17:00 6.8 C 90 % 1016.4 hPa 0.0 l/m 4.9 km/h (1 Bft) W 0.00 h 25 W/m 5.2 C 6.2 C 8.0 km/h (2 Bft)
02.03.2009 18:00 6.7 C 88 % 1016.8 hPa 0.0 l/m 5.3 km/h (1 Bft) W 0.00 h 5 W/m 4.9 C 6.0 C 8.2 km/h (2 Bft)
02.03.2009 19:00 6.5 C 88 % 1017.2 hPa 0.0 l/m 1.8 km/h (1 Bft) W 0.00 h 0 W/m 4.7 C 6.4 C 3.3 km/h (1 Bft)
02.03.2009 20:00 6.2 C 90 % 1017.5 hPa 0.0 l/m 0.5 km/h (0 Bft) W 0.00 h 0 W/m 4.7 C 6.2 C 1.2 km/h (1 Bft)
02.03.2009 21:00 5.8 C 92 % 1017.7 hPa 0.6 l/m 0.5 km/h (0 Bft) S-SW 0.00 h 0 W/m 4.6 C 5.8 C 1.9 km/h (1 Bft)
02.03.2009 22:00 5.7 C 93 % 1018.1 hPa 0.4 l/m 0.6 km/h (0 Bft) S-SW 0.00 h 0 W/m 4.6 C 5.7 C 1.6 km/h (1 Bft)
02.03.2009 23:00 5.5 C 93 % 1018.1 hPa 0.2 l/m 0.9 km/h (0 Bft) S-SW 0.00 h 0 W/m 4.6 C 5.5 C 2.5 km/h (1 Bft)
03.03.2009 00:00 5.4 C 94 % 1018.3 hPa 0.2 l/m 0.4 km/h (0 Bft) W 0.00 h 0 W/m 4.5 C 5.4 C 1.5 km/h (1 Bft)
03.03.2009 01:00 5.2 C 95 % 1018.4 hPa 0.0 l/m 0.0 km/h (0 Bft) N 0.00 h 0 W/m 4.5 C 5.2 C 0.1 km/h (0 Bft)
03.03.2009 02:00 5.1 C 95 % 1018.3 hPa 0.2 l/m 0.0 km/h (0 Bft) N 0.00 h 0 W/m 4.4 C 5.1 C 0.1 km/h (0 Bft)
03.03.2009 03:00 5.0 C 96 % 1017.9 hPa 0.2 l/m 0.0 km/h (0 Bft) W 0.00 h 0 W/m 4.4 C 5.0 C 0.3 km/h (0 Bft)
03.03.2009 04:00 4.8 C 96 % 1017.7 hPa 0.2 l/m 0.1 km/h (0 Bft) W 0.00 h 0 W/m 4.3 C 4.8 C 0.7 km/h (0 Bft)
03.03.2009 05:00 4.7 C 97 % 1017.6 hPa 0.0 l/m 0.0 km/h (0 Bft) W 0.00 h 0 W/m 4.3 C 4.7 C 0.1 km/h (0 Bft)
03.03.2009 06:00 4.6 C 97 % 1017.5 hPa 0.2 l/m 0.0 km/h (0 Bft) N 0.00 h 0 W/m 4.2 C 4.6 C 0.0 km/h (0 Bft)
03.03.2009 07:00 4.6 C 97 % 1017.3 hPa 0.4 l/m 0.0 km/h (0 Bft) N 0.00 h 13 W/m 4.2 C 4.6 C 0.0 km/h (0 Bft)
03.03.2009 08:00 4.6 C 98 % 1017.4 hPa 0.0 l/m 0.0 km/h (0 Bft) N 0.00 h 15 W/m 4.3 C 4.6 C 0.0 km/h (0 Bft)
03.03.2009 09:00 4.7 C 98 % 1017.0 hPa 0.0 l/m 0.1 km/h (0 Bft) W 0.00 h 45 W/m 4.4 C 4.7 C 0.6 km/h (0 Bft)
03.03.2009 10:00 5.0 C 98 % 1016.7 hPa 0.0 l/m 0.5 km/h (0 Bft) W 0.00 h 69 W/m 4.7 C 5.0 C 2.0 km/h (1 Bft)
03.03.2009 11:00 5.3 C 98 % 1016.4 hPa 0.0 l/m 0.4 km/h (0 Bft) W 0.00 h 95 W/m 5.0 C 5.3 C 1.7 km/h (1 Bft)
03.03.2009 12:00 5.8 C 98 % 1015.9 hPa 0.0 l/m 1.3 km/h (1 Bft) NW 0.00 h 147 W/m 5.5 C 5.8 C 3.2 km/h (1 Bft)
03.03.2009 13:00 6.2 C 96 % 1015.0 hPa 0.0 l/m 0.7 km/h (0 Bft) NW 0.00 h 125 W/m 5.6 C 6.2 C 2.2 km/h (1 Bft)
03.03.2009 14:00 6.4 C 90 % 1014.3 hPa 0.0 l/m 2.0 km/h (1 Bft) W 0.00 h 90 W/m 4.9 C 6.4 C 3.9 km/h (1 Bft)
03.03.2009 15:00 6.5 C 87 % 1013.7 hPa 0.0 l/m 0.3 km/h (0 Bft) W 0.00 h 118 W/m 4.5 C 6.5 C 1.5 km/h (1 Bft)
03.03.2009 16:00 7.0 C 84 % 1012.8 hPa 0.0 l/m 0.2 km/h (0 Bft) W 0.00 h 69 W/m 4.5 C 7.0 C 1.1 km/h (1 Bft)
03.03.2009 17:00 6.8 C 84 % 1012.3 hPa 0.0 l/m 0.0 km/h (0 Bft) N 0.00 h 31 W/m 4.2 C 6.8 C 0.2 km/h (0 Bft)
03.03.2009 18:00 5.9 C 86 % 1011.9 hPa 0.0 l/m 0.7 km/h (0 Bft) W-SW 0.00 h 7 W/m 3.7 C 5.9 C 1.2 km/h (1 Bft)
03.03.2009 19:00 4.8 C 90 % 1011.3 hPa 0.0 l/m 2.1 km/h (1 Bft) S-SO 0.00 h 0 W/m 3.2 C 4.6 C 2.9 km/h (1 Bft)
03.03.2009 20:00 3.3 C 92 % 1010.6 hPa 0.0 l/m 3.2 km/h (1 Bft) O-SO 0.00 h 0 W/m 2.1 C 2.9 C 4.3 km/h (1 Bft)
03.03.2009 21:00 2.5 C 94 % 1010.1 hPa 0.0 l/m 1.7 km/h (1 Bft) O-SO 0.00 h 0 W/m 1.6 C 2.4 C 2.8 km/h (1 Bft)
03.03.2009 22:00 2.1 C 96 % 1009.4 hPa 0.0 l/m 1.1 km/h (0 Bft) O 0.00 h 0 W/m 1.5 C 2.1 C 2.0 km/h (1 Bft)
03.03.2009 23:00 2.4 C 97 % 1008.5 hPa 0.0 l/m 2.2 km/h (1 Bft) O 0.00 h 0 W/m 1.9 C 2.1 C 3.6 km/h (1 Bft)
04.03.2009 00:00 2.2 C 98 % 1007.7 hPa 0.0 l/m 1.2 km/h (1 Bft) SO 0.00 h 0 W/m 1.9 C 2.2 C 2.4 km/h (1 Bft)
04.03.2009 01:00 2.2 C 98 % 1006.8 hPa 0.0 l/m 2.0 km/h (1 Bft) SO 0.00 h 0 W/m 1.9 C 2.1 C 4.2 km/h (1 Bft)
04.03.2009 02:00 2.2 C 99 % 1005.6 hPa 0.0 l/m 0.7 km/h (0 Bft) SO 0.00 h 0 W/m 2.0 C 2.2 C 1.8 km/h (1 Bft)
04.03.2009 03:00 2.2 C 99 % 1004.0 hPa 0.0 l/m 1.4 km/h (1 Bft) SO 0.00 h 0 W/m 2.1 C 2.0 C 2.5 km/h (1 Bft)
04.03.2009 04:00 2.2 C 99 % 1002.6 hPa 0.0 l/m 0.4 km/h (0 Bft) SO 0.00 h 0 W/m 2.1 C 2.2 C 1.3 km/h (1 Bft)
04.03.2009 05:00 2.1 C 99 % 1001.6 hPa 0.0 l/m 3.4 km/h (1 Bft) O-SO 0.00 h 0 W/m 1.9 C 1.4 C 5.9 km/h (2 Bft)
04.03.2009 06:00 1.8 C 99 % 1000.8 hPa 0.0 l/m 3.5 km/h (1 Bft) O-SO 0.00 h 0 W/m 1.7 C 1.3 C 5.7 km/h (1 Bft)
04.03.2009 07:00 1.9 C 99 % 999.9 hPa 0.0 l/m 3.1 km/h (1 Bft) O-SO 0.00 h 16 W/m 1.8 C 1.4 C 5.6 km/h (1 Bft)
04.03.2009 08:00 2.1 C 99 % 999.1 hPa 0.0 l/m 4.1 km/h (1 Bft) O-SO 0.00 h 50 W/m 2.0 C 1.4 C 6.6 km/h (2 Bft)
04.03.2009 09:00 2.7 C 99 % 997.7 hPa 0.0 l/m 1.3 km/h (1 Bft) SO 0.00 h 110 W/m 2.5 C 2.6 C 2.9 km/h (1 Bft)
04.03.2009 10:00 3.7 C 98 % 996.3 hPa 0.0 l/m 0.9 km/h (0 Bft) N-NO 0.00 h 129 W/m 3.4 C 3.7 C 2.6 km/h (1 Bft)
04.03.2009 11:00 4.8 C 91 % 995.0 hPa 0.0 l/m 2.7 km/h (1 Bft) O-SO 0.27 h 290 W/m 3.4 C 4.6 C 5.2 km/h (1 Bft)
04.03.2009 12:00 7.0 C 81 % 993.2 hPa 0.0 l/m 4.6 km/h (1 Bft) SO 0.93 h 439 W/m 3.9 C 6.5 C 7.9 km/h (2 Bft)
04.03.2009 13:00 7.3 C 80 % 991.7 hPa 0.0 l/m 8.8 km/h (2 Bft) SO 0.95 h 407 W/m 4.0 C 5.7 C 13.4 km/h (3 Bft)
04.03.2009 14:00 8.1 C 76 % 990.4 hPa 0.0 l/m 5.7 km/h (1 Bft) SO 0.75 h 370 W/m 4.2 C 7.4 C 9.5 km/h (2 Bft)
04.03.2009 15:00 8.2 C 75 % 989.5 hPa 0.0 l/m 3.1 km/h (1 Bft) S-SW 0.00 h 169 W/m 4.1 C 8.0 C 5.9 km/h (2 Bft)
04.03.2009 16:00 7.6 C 77 % 989.1 hPa 0.0 l/m 3.4 km/h (1 Bft) S-SW 0.00 h 70 W/m 3.7 C 7.4 C 6.1 km/h (2 Bft)
04.03.2009 17:00 6.4 C 81 % 988.8 hPa 0.2 l/m 2.1 km/h (1 Bft) S-SW 0.00 h 23 W/m 3.3 C 6.3 C 4.6 km/h (1 Bft)
04.03.2009 18:00 5.4 C 83 % 988.6 hPa 0.0 l/m 2.7 km/h (1 Bft) SW 0.00 h 5 W/m 2.7 C 5.1 C 5.4 km/h (1 Bft)
04.03.2009 19:00 4.6 C 85 % 988.5 hPa 0.0 l/m 1.3 km/h (1 Bft) SO 0.00 h 0 W/m 2.3 C 4.6 C 2.5 km/h (1 Bft)
04.03.2009 20:00 4.2 C 87 % 987.7 hPa 0.0 l/m 0.6 km/h (0 Bft) SO 0.00 h 0 W/m 2.2 C 4.2 C 1.4 km/h (1 Bft)
04.03.2009 21:00 3.9 C 89 % 987.1 hPa 0.0 l/m 0.5 km/h (0 Bft) SO 0.00 h 0 W/m 2.2 C 3.9 C 1.4 km/h (1 Bft)
04.03.2009 22:00 3.5 C 90 % 986.6 hPa 0.0 l/m 1.5 km/h (1 Bft) SO 0.00 h 0 W/m 2.0 C 3.5 C 3.1 km/h (1 Bft)
04.03.2009 23:00 3.1 C 90 % 986.0 hPa 0.0 l/m 0.8 km/h (0 Bft) SO 0.00 h 0 W/m 1.7 C 3.1 C 1.8 km/h (1 Bft)
05.03.2009 00:00 2.7 C 92 % 985.7 hPa 0.0 l/m 1.8 km/h (1 Bft) SO 0.00 h 0 W/m 1.5 C 2.6 C 3.7 km/h (1 Bft)
05.03.2009 01:00 3.3 C 93 % 985.6 hPa 0.0 l/m 3.3 km/h (1 Bft) S-SO 0.00 h 0 W/m 2.3 C 2.8 C 5.7 km/h (1 Bft)
05.03.2009 02:00 4.2 C 93 % 985.1 hPa 0.0 l/m 2.8 km/h (1 Bft) S-SO 0.00 h 0 W/m 3.1 C 3.9 C 5.4 km/h (1 Bft)
05.03.2009 03:00 4.3 C 89 % 985.0 hPa 0.2 l/m 6.7 km/h (2 Bft) W 0.00 h 0 W/m 2.6 C 2.8 C 10.4 km/h (2 Bft)
05.03.2009 04:00 3.2 C 90 % 985.2 hPa 1.0 l/m 7.3 km/h (2 Bft) W-SW 0.00 h 0 W/m 1.7 C 1.4 C 11.7 km/h (2 Bft)
05.03.2009 05:00 2.2 C 92 % 985.8 hPa 1.2 l/m 4.4 km/h (1 Bft) W-SW 0.00 h 0 W/m 1.0 C 1.2 C 7.6 km/h (2 Bft)
05.03.2009 06:00 1.5 C 93 % 985.9 hPa 1.2 l/m 2.3 km/h (1 Bft) S 0.00 h 0 W/m 0.5 C 1.4 C 4.9 km/h (1 Bft)
05.03.2009 07:00 0.9 C 94 % 986.0 hPa 0.4 l/m 3.1 km/h (1 Bft) S 0.00 h 8 W/m 0.1 C 0.5 C 5.3 km/h (1 Bft)
05.03.2009 08:00 0.8 C 95 % 986.1 hPa 0.8 l/m 3.1 km/h (1 Bft) O-SO 0.00 h 31 W/m 0.2 C 0.7 C 4.8 km/h (1 Bft)
05.03.2009 09:00 1.5 C 97 % 985.9 hPa 1.0 l/m 1.7 km/h (1 Bft) S-SO 0.00 h 69 W/m 1.0 C 1.3 C 3.8 km/h (1 Bft)
05.03.2009 10:00 2.3 C 97 % 985.7 hPa 0.4 l/m 2.2 km/h (1 Bft) W-NW 0.00 h 83 W/m 1.9 C 2.1 C 4.6 km/h (1 Bft)
05.03.2009 11:00 2.7 C 97 % 986.0 hPa 0.4 l/m 2.6 km/h (1 Bft) W-SW 0.00 h 90 W/m 2.3 C 2.3 C 5.0 km/h (1 Bft)
05.03.2009 12:00 2.8 C 97 % 986.0 hPa 0.4 l/m 0.9 km/h (0 Bft) W-SW 0.00 h 73 W/m 2.3 C 2.7 C 2.3 km/h (1 Bft)
05.03.2009 13:00 3.2 C 97 % 985.3 hPa 0.0 l/m 0.5 km/h (0 Bft) S-SO 0.00 h 81 W/m 2.7 C 3.2 C 2.0 km/h (1 Bft)
05.03.2009 14:00 3.7 C 96 % 984.9 hPa 0.0 l/m 1.8 km/h (1 Bft) W-NW 0.00 h 90 W/m 3.1 C 3.5 C 4.2 km/h (1 Bft)
05.03.2009 15:00 3.8 C 94 % 984.8 hPa 0.2 l/m 1.7 km/h (1 Bft) S-SO 0.00 h 49 W/m 3.0 C 3.8 C 4.0 km/h (1 Bft)
05.03.2009 16:00 3.5 C 93 % 985.2 hPa 0.4 l/m 2.3 km/h (1 Bft) S-SW 0.00 h 20 W/m 2.5 C 3.4 C 4.5 km/h (1 Bft)
05.03.2009 17:00 3.1 C 93 % 985.8 hPa 0.6 l/m 4.8 km/h (1 Bft) W-SW 0.00 h 7 W/m 2.1 C 2.1 C 8.5 km/h (2 Bft)
05.03.2009 18:00 2.5 C 94 % 986.9 hPa 0.6 l/m 4.8 km/h (1 Bft) W-SW 0.00 h 0 W/m 1.6 C 1.6 C 8.3 km/h (2 Bft)
05.03.2009 19:00 2.2 C 95 % 987.7 hPa 0.4 l/m 3.3 km/h (1 Bft) W 0.00 h 0 W/m 1.5 C 1.7 C 6.4 km/h (2 Bft)
05.03.2009 20:00 1.9 C 95 % 988.1 hPa 0.2 l/m 9.9 km/h (2 Bft) W 0.00 h 0 W/m 1.2 C -0.9 C 16.4 km/h (3 Bft)
05.03.2009 21:00 1.7 C 95 % 988.6 hPa 0.2 l/m 9.5 km/h (2 Bft) W 0.00 h 0 W/m 1.0 C -1.0 C 16.0 km/h (3 Bft)
05.03.2009 22:00 1.6 C 95 % 988.9 hPa 0.0 l/m 9.0 km/h (2 Bft) W 0.00 h 0 W/m 0.9 C -1.0 C 15.2 km/h (3 Bft)
05.03.2009 23:00 1.6 C 95 % 989.1 hPa 0.0 l/m 13.1 km/h (3 Bft) W 0.00 h 0 W/m 0.9 C -2.0 C 20.8 km/h (4 Bft)
06.03.2009 00:00 1.6 C 95 % 989.6 hPa 0.2 l/m 11.0 km/h (2 Bft) W 0.00 h 0 W/m 0.9 C -1.5 C 17.1 km/h (3 Bft)
06.03.2009 01:00 1.6 C 95 % 990.3 hPa 0.4 l/m 8.4 km/h (2 Bft) W 0.00 h 0 W/m 0.8 C -0.8 C 13.7 km/h (3 Bft)
06.03.2009 02:00 1.6 C 95 % 990.8 hPa 0.0 l/m 3.9 km/h (1 Bft) W-NW 0.00 h 0 W/m 0.9 C 0.9 C 6.8 km/h (2 Bft)
06.03.2009 03:00 1.5 C 95 % 991.1 hPa 0.4 l/m 2.3 km/h (1 Bft) SW 0.00 h 0 W/m 0.7 C 1.3 C 4.6 km/h (1 Bft)
06.03.2009 04:00 1.1 C 95 % 991.9 hPa 0.6 l/m 1.3 km/h (1 Bft) S-SO 0.00 h 0 W/m 0.3 C 1.0 C 3.1 km/h (1 Bft)
06.03.2009 05:00 0.9 C 96 % 992.8 hPa 0.6 l/m 2.0 km/h (1 Bft) S 0.00 h 0 W/m 0.3 C 0.7 C 4.2 km/h (1 Bft)
06.03.2009 06:00 0.8 C 96 % 993.6 hPa 0.4 l/m 1.1 km/h (1 Bft) S 0.00 h 0 W/m 0.3 C 0.8 C 3.1 km/h (1 Bft)
06.03.2009 07:00 0.8 C 97 % 994.7 hPa 0.8 l/m 2.2 km/h (1 Bft) S-SO 0.00 h 7 W/m 0.3 C 0.7 C 4.3 km/h (1 Bft)
06.03.2009 08:00 0.7 C 97 % 995.9 hPa 0.6 l/m 1.7 km/h (1 Bft) S 0.00 h 27 W/m 0.3 C 0.7 C 3.6 km/h (1 Bft)
06.03.2009 09:00 0.9 C 97 % 996.9 hPa 0.6 l/m 1.6 km/h (1 Bft) S 0.00 h 71 W/m 0.5 C 0.8 C 3.3 km/h (1 Bft)
06.03.2009 10:00 1.6 C 98 % 997.7 hPa 0.2 l/m 1.9 km/h (1 Bft) W-NW 0.00 h 96 W/m 1.3 C 1.4 C 3.8 km/h (1 Bft)
06.03.2009 11:00 2.2 C 98 % 998.4 hPa 0.2 l/m 3.6 km/h (1 Bft) W-NW 0.00 h 136 W/m 1.8 C 1.4 C 6.2 km/h (2 Bft)
06.03.2009 12:00 2.2 C 97 % 999.1 hPa 0.0 l/m 6.0 km/h (2 Bft) W 0.00 h 139 W/m 1.8 C 0.7 C 9.9 km/h (2 Bft)
06.03.2009 13:00 2.5 C 96 % 999.5 hPa 0.2 l/m 3.0 km/h (1 Bft) W-NW 0.00 h 110 W/m 2.0 C 2.2 C 5.3 km/h (1 Bft)
06.03.2009 14:00 2.7 C 95 % 1000.0 hPa 0.6 l/m 3.1 km/h (1 Bft) W-SW 0.00 h 80 W/m 2.0 C 2.2 C 5.6 km/h (1 Bft)
06.03.2009 15:00 2.6 C 95 % 1000.7 hPa 0.6 l/m 2.1 km/h (1 Bft) SW 0.00 h 50 W/m 1.8 C 2.5 C 4.4 km/h (1 Bft)
06.03.2009 16:00 2.1 C 94 % 1001.7 hPa 0.8 l/m 3.9 km/h (1 Bft) S-SW 0.00 h 31 W/m 1.3 C 1.6 C 6.7 km/h (2 Bft)
06.03.2009 17:00 1.7 C 95 % 1002.7 hPa 0.8 l/m 3.9 km/h (1 Bft) S 0.00 h 15 W/m 1.0 C 1.0 C 7.2 km/h (2 Bft)
06.03.2009 18:00 1.3 C 96 % 1003.9 hPa 0.2 l/m 3.2 km/h (1 Bft) S 0.00 h 0 W/m 0.7 C 1.0 C 6.4 km/h (2 Bft)
06.03.2009 19:00 1.4 C 96 % 1005.1 hPa 0.2 l/m 2.6 km/h (1 Bft) S-SO 0.00 h 0 W/m 0.8 C 1.1 C 5.3 km/h (1 Bft)
06.03.2009 20:00 1.6 C 97 % 1006.1 hPa 0.0 l/m 4.9 km/h (1 Bft) W 0.00 h 0 W/m 1.2 C 0.5 C 8.6 km/h (2 Bft)
06.03.2009 21:00 1.9 C 97 % 1006.7 hPa 0.2 l/m 6.7 km/h (2 Bft) W 0.00 h 0 W/m 1.4 C 0.1 C 11.4 km/h (2 Bft)
06.03.2009 22:00 1.9 C 96 % 1007.2 hPa 0.0 l/m 9.5 km/h (2 Bft) W 0.00 h 0 W/m 1.3 C -0.8 C 16.3 km/h (3 Bft)
06.03.2009 23:00 2.0 C 95 % 1007.6 hPa 0.0 l/m 12.3 km/h (3 Bft) W 0.00 h 0 W/m 1.2 C -1.4 C 19.6 km/h (3 Bft)
07.03.2009 00:00 2.2 C 92 % 1008.3 hPa 0.0 l/m 12.0 km/h (2 Bft) W 0.00 h 0 W/m 1.1 C -1.1 C 18.6 km/h (3 Bft)
07.03.2009 01:00 2.0 C 92 % 1009.1 hPa 0.2 l/m 4.9 km/h (1 Bft) SW 0.00 h 0 W/m 0.9 C 0.9 C 7.7 km/h (2 Bft)
07.03.2009 02:00 1.3 C 93 % 1009.6 hPa 0.4 l/m 5.6 km/h (1 Bft) S-SW 0.00 h 0 W/m 0.4 C -0.1 C 8.8 km/h (2 Bft)
07.03.2009 03:00 1.2 C 95 % 1010.0 hPa 0.2 l/m 3.9 km/h (1 Bft) S-SW 0.00 h 0 W/m 0.4 C 0.4 C 6.9 km/h (2 Bft)
07.03.2009 04:00 1.2 C 96 % 1010.5 hPa 0.0 l/m 3.2 km/h (1 Bft) SW 0.00 h 0 W/m 0.6 C 0.5 C 5.7 km/h (1 Bft)
07.03.2009 05:00 1.4 C 95 % 1011.1 hPa 0.0 l/m 8.2 km/h (2 Bft) W 0.00 h 0 W/m 0.7 C -1.1 C 12.5 km/h (3 Bft)
07.03.2009 06:00 1.4 C 93 % 1011.7 hPa 0.0 l/m 5.2 km/h (1 Bft) W 0.00 h 0 W/m 0.3 C 0.1 C 8.2 km/h (2 Bft)
07.03.2009 07:00 1.2 C 91 % 1012.8 hPa 0.0 l/m 4.6 km/h (1 Bft) W-NW 0.00 h 25 W/m -0.1 C 0.3 C 7.5 km/h (2 Bft)
07.03.2009 08:00 1.2 C 89 % 1013.6 hPa 0.0 l/m 6.9 km/h (2 Bft) W 0.00 h 89 W/m -0.3 C -0.6 C 11.6 km/h (2 Bft)
07.03.2009 09:00 2.2 C 83 % 1014.3 hPa 0.0 l/m 12.4 km/h (3 Bft) W 0.85 h 281 W/m -0.4 C -1.1 C 19.5 km/h (3 Bft)
07.03.2009 10:00 3.5 C 76 % 1014.8 hPa 0.0 l/m 11.6 km/h (2 Bft) W 0.92 h 425 W/m -0.3 C 0.5 C 18.1 km/h (3 Bft)
07.03.2009 11:00 4.4 C 71 % 1015.2 hPa 0.0 l/m 11.6 km/h (2 Bft) W-SW 1.00 h 569 W/m -0.4 C 1.6 C 18.0 km/h (3 Bft)
07.03.2009 12:00 5.9 C 63 % 1015.2 hPa 0.0 l/m 10.7 km/h (2 Bft) W-SW 1.00 h 667 W/m -0.5 C 3.7 C 16.2 km/h (3 Bft)
07.03.2009 13:00 6.7 C 57 % 1015.1 hPa 0.0 l/m 6.9 km/h (2 Bft) W 0.57 h 441 W/m -1.2 C 5.5 C 10.7 km/h (2 Bft)
07.03.2009 14:00 6.4 C 60 % 1015.3 hPa 0.2 l/m 9.1 km/h (2 Bft) W 0.10 h 226 W/m -0.9 C 4.6 C 13.7 km/h (3 Bft)
07.03.2009 15:00 7.7 C 52 % 1015.4 hPa 0.0 l/m 10.2 km/h (2 Bft) W 1.00 h 513 W/m -1.4 C 5.9 C 16.1 km/h (3 Bft)
07.03.2009 16:00 7.4 C 52 % 1015.5 hPa 0.0 l/m 8.2 km/h (2 Bft) W-SW 0.75 h 222 W/m -1.7 C 6.0 C 12.7 km/h (3 Bft)
07.03.2009 17:00 6.3 C 57 % 1016.2 hPa 0.0 l/m 4.3 km/h (1 Bft) W 0.22 h 60 W/m -1.7 C 5.8 C 6.8 km/h (2 Bft)
07.03.2009 18:00 4.7 C 66 % 1017.0 hPa 0.0 l/m 0.8 km/h (0 Bft) W 0.05 h 12 W/m -1.2 C 4.7 C 1.8 km/h (1 Bft)
07.03.2009 19:00 2.7 C 77 % 1017.8 hPa 0.0 l/m 3.0 km/h (1 Bft) O-SO 0.00 h 0 W/m -0.9 C 2.2 C 4.1 km/h (1 Bft)
07.03.2009 20:00 1.6 C 83 % 1018.5 hPa 0.0 l/m 2.4 km/h (1 Bft) O 0.00 h 0 W/m -0.9 C 1.5 C 3.8 km/h (1 Bft)
07.03.2009 21:00 0.6 C 86 % 1018.7 hPa 0.0 l/m 3.4 km/h (1 Bft) O-SO 0.00 h 0 W/m -1.5 C -0.1 C 4.6 km/h (1 Bft)
07.03.2009 22:00 0.1 C 87 % 1018.9 hPa 0.0 l/m 1.5 km/h (1 Bft) O-SO 0.00 h 0 W/m -1.8 C -0.0 C 2.5 km/h (1 Bft)
07.03.2009 23:00 -0.8 C 89 % 1018.8 hPa 0.0 l/m 1.2 km/h (1 Bft) O-SO 0.00 h 0 W/m -2.4 C -0.9 C 1.8 km/h (1 Bft)
08.03.2009 00:00 -1.3 C 90 % 1018.6 hPa 0.0 l/m 1.4 km/h (1 Bft) O-SO 0.00 h 0 W/m -2.6 C -1.6 C 2.2 km/h (1 Bft)
08.03.2009 01:00 -1.3 C 92 % 1017.8 hPa 0.0 l/m 0.7 km/h (0 Bft) O-SO 0.00 h 0 W/m -2.5 C -1.4 C 1.4 km/h (1 Bft)
08.03.2009 02:00 -1.3 C 92 % 1017.6 hPa 0.0 l/m 0.9 km/h (0 Bft) O-SO 0.00 h 0 W/m -2.4 C -1.3 C 2.0 km/h (1 Bft)
08.03.2009 03:00 -1.7 C 91 % 1017.0 hPa 0.0 l/m 1.6 km/h (1 Bft) O-SO 0.00 h 0 W/m -3.0 C -2.0 C 2.4 km/h (1 Bft)
08.03.2009 04:00 -1.8 C 92 % 1016.9 hPa 0.0 l/m 0.7 km/h (0 Bft) SO 0.00 h 0 W/m -2.9 C -1.8 C 1.5 km/h (1 Bft)
08.03.2009 05:00 -1.4 C 93 % 1017.2 hPa 0.0 l/m 0.7 km/h (0 Bft) N 0.00 h 0 W/m -2.4 C -1.4 C 1.8 km/h (1 Bft)
08.03.2009 06:00 -1.0 C 92 % 1016.7 hPa 0.0 l/m 3.4 km/h (1 Bft) SO 0.00 h 7 W/m -2.2 C -1.8 C 6.4 km/h (2 Bft)
08.03.2009 07:00 -0.2 C 86 % 1016.5 hPa 0.0 l/m 2.2 km/h (1 Bft) S-SW 0.30 h 57 W/m -2.2 C -0.3 C 4.7 km/h (1 Bft)
08.03.2009 08:00 0.8 C 81 % 1016.4 hPa 0.0 l/m 2.5 km/h (1 Bft) S-SW 0.12 h 92 W/m -2.1 C 0.5 C 5.2 km/h (1 Bft)
08.03.2009 09:00 2.2 C 75 % 1016.3 hPa 0.0 l/m 5.2 km/h (1 Bft) S-SW 0.83 h 273 W/m -1.8 C 1.1 C 9.3 km/h (2 Bft)
08.03.2009 10:00 3.9 C 69 % 1016.0 hPa 0.0 l/m 6.9 km/h (2 Bft) S 0.53 h 294 W/m -1.3 C 2.3 C 12.8 km/h (3 Bft)
08.03.2009 11:00 4.4 C 67 % 1015.6 hPa 0.0 l/m 8.4 km/h (2 Bft) S-SW 0.00 h 217 W/m -1.2 C 2.4 C 14.6 km/h (3 Bft)
08.03.2009 12:00 5.6 C 65 % 1014.8 hPa 0.0 l/m 7.9 km/h (2 Bft) S-SW 0.47 h 320 W/m -0.4 C 4.0 C 14.0 km/h (3 Bft)
08.03.2009 13:00 8.1 C 59 % 1013.2 hPa 0.0 l/m 9.2 km/h (2 Bft) SW 0.88 h 473 W/m 0.4 C 6.5 C 15.2 km/h (3 Bft)
08.03.2009 14:00 9.4 C 57 % 1012.0 hPa 0.0 l/m 7.0 km/h (2 Bft) SW 0.33 h 251 W/m 1.3 C 8.5 C 10.9 km/h (2 Bft)
08.03.2009 15:00 9.5 C 59 % 1011.3 hPa 0.0 l/m 5.8 km/h (2 Bft) SW 0.47 h 229 W/m 2.0 C 9.0 C 9.5 km/h (2 Bft)
08.03.2009 16:00 9.2 C 60 % 1010.9 hPa 0.0 l/m 3.6 km/h (1 Bft) S-SW 0.00 h 104 W/m 1.8 C 9.0 C 6.4 km/h (2 Bft)
08.03.2009 17:00 8.7 C 63 % 1010.8 hPa 0.0 l/m 4.5 km/h (1 Bft) S-SW 0.00 h 23 W/m 2.2 C 8.4 C 7.7 km/h (2 Bft)
08.03.2009 18:00 8.1 C 71 % 1010.6 hPa 0.2 l/m 4.8 km/h (1 Bft) SW 0.00 h 5 W/m 3.1 C 7.6 C 7.4 km/h (2 Bft)
08.03.2009 19:00 6.8 C 83 % 1010.9 hPa 1.0 l/m 4.0 km/h (1 Bft) S-SW 0.00 h 0 W/m 4.1 C 6.5 C 6.6 km/h (2 Bft)
08.03.2009 20:00 6.2 C 88 % 1010.5 hPa 1.8 l/m 2.7 km/h (1 Bft) S-SO 0.00 h 0 W/m 4.4 C 6.1 C 5.1 km/h (1 Bft)
08.03.2009 21:00 5.9 C 91 % 1009.6 hPa 0.6 l/m 3.8 km/h (1 Bft) SW 0.00 h 0 W/m 4.5 C 5.4 C 7.3 km/h (2 Bft)
08.03.2009 22:00 5.9 C 92 % 1009.0 hPa 1.0 l/m 5.3 km/h (1 Bft) SW 0.00 h 0 W/m 4.6 C 5.0 C 8.9 km/h (2 Bft)
08.03.2009 23:00 5.8 C 93 % 1008.6 hPa 1.2 l/m 8.8 km/h (2 Bft) SW 0.00 h 0 W/m 4.7 C 4.0 C 14.1 km/h (3 Bft)
Min-Datum _ 08.03.09 07.03.09 05.03.09 - 02.03.09 - - - 08.03.09 08.03.09 02.03.09
_ Min-Zeit 03:46 16:34 14:30 - 00:01 - - - 03:46 06:33 00:02
Minimum _ -2.2 C 47 % 984.8 hPa - 0.0 km/h (0 Bft) - - - -3.5 C -4.7 C 0.0 km/h (0 Bft)
Max-Datum _ 08.03.09 06.03.09 07.03.09 08.03.09 07.03.09 - 04.03.09 07.03.09 02.03.09 08.03.09 07.03.09
_ Max-Zeit 15:32 22:15 22:00 20:06 09:41 - 11:14 12:56 11:50 15:33 09:41
Maximum _ 9.7 C 100 % 1019.0 hPa 1.8 l/m 22.6 km/h
W (4 Bft)
- 0.02 h 773 W/m 6.9 C 9.7 C 34.8 km/h
W (5 Bft)
Durchschnitt _ 3.7 C 89 % 1005.4 hPa #30.4 l/m 3.5 km/h (1 Bft) W #13:17 h 130 W/m 2.0 C 3.1 C 6.0 km/h (2 Bft)
© Kaiko 2009